• Join FlightAware (Why Join?)
  • Login
  • US Flag 
11:24PM EDT


 

Airport Tracker/Info


-or-


 

Live Flight TrackerFlight Track Log ✈ OPT332 ✈ 05-Nov-2013 ✈ KMDW - KSYR

Flight Track Log - Related Links

Times and Time Zones

All times are in EST time to prevent confusion due to time zone crossing. See the OPT332 flight status page for this flight to view local times or setup timezone preferences in your user account.

Time Position Orientation Groundspeed Altitude Reporting Facility
EST Latitude Longitude Course Direction KTS MPH feet Rate Location/Type
07:07PM 41.8131 -87.7886 352° North 246 283 3,100  Level Chicago Center
07:08PM 41.8103 -87.6936 92° East 218 251 6,900 3,420 Climbing Chicago Center
07:09PM 41.8033 -87.5950 95° East 255 293 10,200 3,180 Climbing Chicago Center
07:10PM 41.7950 -87.4869 96° East 284 327 13,500 2,580 Climbing Chicago Center
07:11PM 41.7853 -87.3611 96° East 339 390 15,600 2,220 Climbing Chicago Center
07:12PM 41.9113 -86.9887 80° East  Level Estimated
07:12PM 41.7744 -87.2286 96° East 357 411 18,200  Level Chicago Center
07:13PM 41.7639 -87.0892 96° East 376 433 20,400 2,160 Climbing Chicago Center
07:14PM 41.7644 -86.9106 90° East 398 458 22,700 1,680 Climbing Chicago Center
07:15PM 41.7647 -86.7500 90° East 427 491 23,900 720 Climbing Chicago Center
07:16PM 41.7656 -86.5925 90° East 468 539 24,200 720 Climbing Chicago Center
07:17PM 41.7675 -86.3731 89° East 493 567 25,400 1,020 Climbing Chicago Center
07:18PM 41.7922 -86.1869 80° East 511 588 26,400 960 Climbing Chicago Center
07:19PM 41.8233 -85.9997 77° East 514 592 27,400 960 Climbing Chicago Center
07:20PM 41.8550 -85.8078 77° East 522 601 28,500 960 Climbing Chicago Center
07:21PM 41.8889 -85.6136 77° East 528 608 29,500 960 Climbing Chicago Center
07:22PM 41.9217 -85.4150 77° East 535 616 30,500 960 Climbing Chicago Center
07:23PM 41.9525 -85.2172 78° East 536 617 31,500 1,020 Climbing Chicago Center
07:24PM 41.9506 -84.9733 91° East 542 624 32,700 1,020 Climbing Chicago Center
07:25PM 41.9678 -84.7708 83° East 546 628 33,700 960 Climbing Chicago Center
07:26PM 42.0081 -84.5642 75° East 547 629 34,700 960 Climbing Chicago Center
07:27PM 42.0461 -84.3658 75° East 550 633 35,700 1,020 Climbing Chicago Center
07:28PM 42.0714 -84.2336 76° East 549 632 36,400 1,020 Climbing Cleveland Center
07:29PM 42.1119 -84.0364 74° East 549 632 37,400 960 Climbing Cleveland Center
07:30PM 42.1528 -83.8394 74° East 549 632 38,400 900 Climbing Cleveland Center
07:31PM 42.1931 -83.6447 74° East 544 626 39,300 900 Climbing Cleveland Center
07:32PM 42.2317 -83.4483 75° East 548 631 40,300 1,020 Climbing Cleveland Center
07:33PM 42.2717 -83.2192 77° East 535 616 41,500 960 Climbing Cleveland Center
07:34PM 42.2978 -83.0378 79° East 527 606 42,400 780 Climbing Cleveland Center
07:35PM 42.3264 -82.8483 78° East 520 598 43,200 660 Climbing Cleveland Center
07:36PM 42.3539 -82.6597 79° East 515 593 43,800 600 Climbing Cleveland Center
07:37PM 42.3872 -82.4339 79° East 512 589 44,500 540 Climbing Cleveland Center
07:38PM 42.4139 -82.2472 79° East 509 586 45,000 240 Climbing Cleveland Center
07:39PM 42.4378 -82.0706 80° East 508 585 45,000  Level Cleveland Center
07:40PM 42.4664 -81.8722 79° East 508 585 45,000  Level Cleveland Center
07:42PM 42.4958 -81.6567 79° East 512 589 45,000  Level Cleveland Center
07:48PM 42.6550 -80.4465 79° East 518 596 45,000 -180 Level FlightAware ADS-B (CYHM)
07:49PM 42.6948 -80.1244 80° East 529 609 43,600 -1,020 Descending FlightAware ADS-B (CYHM)
07:50PM 42.7087 -80.0100 81° East 534 615 42,900 -1,380 Descending FlightAware ADS-B (CYHM)
07:51PM 42.7156 -79.9534 81° East 543 625 41,800 -1,500 Descending FlightAware ADS-B (CZBA)
07:52PM 42.7469 -79.6911 81° East 558 642 40,400 -1,500 Descending FlightAware ADS-B (CZBA)
07:52PM 42.7636 -79.5484 81° East 566 651 39,600 -1,620 Descending FlightAware ADS-B (CZBA)
07:53PM 42.7755 -79.4465 81° East 571 657 38,800 -1,680 Descending FlightAware ADS-B (CZBA)
07:54PM 42.8022 -79.2125 81° East 570 656 37,000 -1,860 Descending FlightAware ADS-B (CZBA)
07:56PM 42.8432 -78.8453 81° East 539 620 33,600 -1,920 Descending FlightAware ADS-B (CYHM)
07:57PM 42.8681 -78.6161 81° East 519 597 31,200 -1,860 Descending Cleveland Center
07:58PM 42.8875 -78.4297 82° East 499 574 29,200 -1,980 Descending Cleveland Center
07:59PM 42.9086 -78.2394 81° East 505 581 27,200 -2,160 Descending Cleveland Center
08:00PM 42.9322 -78.0114 82° East 502 578 24,800 -2,160 Descending Cleveland Center
08:01PM 42.9503 -77.8342 82° East 473 544 22,800 -2,040 Descending Cleveland Center
08:02PM 42.9667 -77.6681 82° East 441 507 20,700 -2,040 Descending Cleveland Center
08:03PM 42.9831 -77.5053 82° East 434 499 18,700 -1,800 Descending Cleveland Center
08:04PM 42.9983 -77.3431 83° East 430 495 17,100 -1,740 Descending Cleveland Center
08:05PM 43.0131 -77.1833 83° East 423 487 15,100 -1,980 Descending Cleveland Center
08:06PM 43.0275 -77.0342 82° East 400 460 13,000 -1,500 Descending Cleveland Center
08:08PM 43.0517 -76.7786 83° East 380 437 11,000 -1,560 Descending Boston Center
08:09PM 43.0825 -76.6042 76° East 290 334 8,300 -1,920 Descending Boston Center
08:10PM 43.1006 -76.5425 68° East 298 343 7,100 -1,980 Descending Boston Center
08:10PM 43.1111 -76.4994 71° East 287 330 6,300 -1,920 Descending Boston Center
08:11PM 43.1297 -76.4406 67° East 290 334 5,200 -1,320 Descending Boston Center
08:11PM 43.1414 -76.3981 69° East 287 330 5,000 -900 Descending Boston Center
08:12PM 43.1592 -76.3428 66° East 282 325 4,300 -1,440 Descending Boston Center
08:12PM 43.1703 -76.3050 68° East 268 308 3,600 -1,320 Descending Boston Center
08:13PM 43.1850 -76.2486 70° East 274 315 3,000 -660 Descending Boston Center
08:13PM 43.1828 -76.2067 94° East 256 295 3,000  Level Boston Center
08:14PM 43.1858 -76.1533 85° East 259 298 3,000  Level Boston Center
08:15PM 43.1839 -76.1253 95° East 193 222 3,000 -420 Level Boston Center
08:15PM 43.1819 -76.0864 94° East 206 237 2,600 -780 Descending Boston Center
08:15PM 43.1719 -76.0689 128° Southeast 127 146 2,300 -840 Descending Boston Center
08:17PM 43.1422 -76.0536 159° South 102 117 1,600 -720 Descending Boston Center
08:17PM 43.1208 -76.0522 177° South 124 143 1,100 -600 Descending Boston Center
08:18PM 43.1156 -76.0600 227° Southwest 99 114 1,000 -600 Descending Boston Center
08:18PM 43.1092 -76.0892 253° West 115 132 500 -660 Descending Boston Center